North Beach, Maryland
Current Conditions -  °F | °C
As of 8:54 PM on Sunday 21 Dec 2014 (Local Time) from KNAK Reporting Station
Clear Clear  
Wind Chill: -1°   Ceiling: Unl
Heat Index:   Visibility: 8mi
Dew Point: -3°   Wind: 5mph
Humidity: 70%   Direction: 50°NE
Pressure: 30.34"   Gusts: NA
Location:  38.71°N, 76.53°W
Report Text: KNAK 220154Z AUTO 05004KT 8SM CLR 02/M03 A3034 RMK AO2 SLP275 T00171033 $
Loading
Personal Weather Stations






























Interactive Weather Map New forecast layout! Learn more

10-Day Weather Forecast

Advertisements
Track Severe Weather on mobile